sensor_id;sensor_type;location;lat;lon;timestamp;temperature;humidity
6843;DHT22;3460;52.028;8.916;2023-04-03T00:01:35;2.30;99.90
6843;DHT22;3460;52.028;8.916;2023-04-03T00:04:04;2.20;99.90
6843;DHT22;3460;52.028;8.916;2023-04-03T00:06:36;2.20;99.90
6843;DHT22;3460;52.028;8.916;2023-04-03T00:09:08;2.20;99.90
6843;DHT22;3460;52.028;8.916;2023-04-03T00:11:35;2.20;99.90
6843;DHT22;3460;52.028;8.916;2023-04-03T00:14:02;2.10;99.90
6843;DHT22;3460;52.028;8.916;2023-04-03T00:16:34;2.20;99.90
6843;DHT22;3460;52.028;8.916;2023-04-03T00:19:04;2.10;99.90
6843;DHT22;3460;52.028;8.916;2023-04-03T00:21:32;2.00;99.90
6843;DHT22;3460;52.028;8.916;2023-04-03T00:24:02;2.00;99.90
6843;DHT22;3460;52.028;8.916;2023-04-03T00:26:28;1.90;99.90
6843;DHT22;3460;52.028;8.916;2023-04-03T00:28:55;1.90;99.90
6843;DHT22;3460;52.028;8.916;2023-04-03T00:31:22;1.90;99.90
6843;DHT22;3460;52.028;8.916;2023-04-03T00:33:49;1.90;99.90
6843;DHT22;3460;52.028;8.916;2023-04-03T00:36:16;1.80;99.90
6843;DHT22;3460;52.028;8.916;2023-04-03T00:38:44;1.80;99.90
6843;DHT22;3460;52.028;8.916;2023-04-03T00:41:11;1.80;99.90
6843;DHT22;3460;52.028;8.916;2023-04-03T00:43:41;1.80;99.90
6843;DHT22;3460;52.028;8.916;2023-04-03T00:46:07;1.80;99.90
6843;DHT22;3460;52.028;8.916;2023-04-03T00:48:37;1.80;99.90
6843;DHT22;3460;52.028;8.916;2023-04-03T00:53:55;1.70;99.90
6843;DHT22;3460;52.028;8.916;2023-04-03T00:56:30;1.70;99.90
6843;DHT22;3460;52.028;8.916;2023-04-03T00:59:09;1.60;99.90
6843;DHT22;3460;52.028;8.916;2023-04-03T01:02:00;1.60;99.90
6843;DHT22;3460;52.028;8.916;2023-04-03T01:04:31;1.50;99.90
6843;DHT22;3460;52.028;8.916;2023-04-03T01:07:14;1.50;99.90
6843;DHT22;3460;52.028;8.916;2023-04-03T01:09:59;1.50;99.90
6843;DHT22;3460;52.028;8.916;2023-04-03T01:12:29;1.50;99.90
6843;DHT22;3460;52.028;8.916;2023-04-03T01:15:02;1.40;99.90
6843;DHT22;3460;52.028;8.916;2023-04-03T01:17:32;1.30;99.90
6843;DHT22;3460;52.028;8.916;2023-04-03T01:23:20;1.30;99.90
6843;DHT22;3460;52.028;8.916;2023-04-03T01:25:52;1.30;99.90
6843;DHT22;3460;52.028;8.916;2023-04-03T01:28:21;1.20;99.90
6843;DHT22;3460;52.028;8.916;2023-04-03T01:30:51;1.20;99.90
6843;DHT22;3460;52.028;8.916;2023-04-03T01:33:21;1.20;99.90
6843;DHT22;3460;52.028;8.916;2023-04-03T01:35:48;1.20;99.90
6843;DHT22;3460;52.028;8.916;2023-04-03T01:38:15;1.10;99.90
6843;DHT22;3460;52.028;8.916;2023-04-03T01:40:42;1.10;99.90
6843;DHT22;3460;52.028;8.916;2023-04-03T01:43:09;1.10;99.90
6843;DHT22;3460;52.028;8.916;2023-04-03T01:45:36;1.10;99.90
6843;DHT22;3460;52.028;8.916;2023-04-03T01:48:03;1.00;99.90
6843;DHT22;3460;52.028;8.916;2023-04-03T01:50:31;1.00;99.90
6843;DHT22;3460;52.028;8.916;2023-04-03T01:52:59;1.00;99.90
6843;DHT22;3460;52.028;8.916;2023-04-03T01:55:25;1.00;99.90
6843;DHT22;3460;52.028;8.916;2023-04-03T01:58:01;0.90;99.90
6843;DHT22;3460;52.028;8.916;2023-04-03T02:00:29;0.90;99.90
6843;DHT22;3460;52.028;8.916;2023-04-03T02:03:05;0.90;99.90
6843;DHT22;3460;52.028;8.916;2023-04-03T02:05:40;0.80;99.90
6843;DHT22;3460;52.028;8.916;2023-04-03T02:08:21;0.80;99.90
6843;DHT22;3460;52.028;8.916;2023-04-03T02:10:48;0.80;99.90
6843;DHT22;3460;52.028;8.916;2023-04-03T02:13:15;0.80;99.90
6843;DHT22;3460;52.028;8.916;2023-04-03T02:15:42;0.70;99.90
6843;DHT22;3460;52.028;8.916;2023-04-03T02:18:09;0.70;99.90
6843;DHT22;3460;52.028;8.916;2023-04-03T02:20:37;0.70;99.90
6843;DHT22;3460;52.028;8.916;2023-04-03T02:23:04;0.70;99.90
6843;DHT22;3460;52.028;8.916;2023-04-03T02:25:31;0.60;99.90
6843;DHT22;3460;52.028;8.916;2023-04-03T02:27:58;0.60;99.90
6843;DHT22;3460;52.028;8.916;2023-04-03T02:30:25;0.60;99.90
6843;DHT22;3460;52.028;8.916;2023-04-03T02:32:52;0.50;99.90
6843;DHT22;3460;52.028;8.916;2023-04-03T02:35:19;0.50;99.90
6843;DHT22;3460;52.028;8.916;2023-04-03T02:37:48;0.50;99.90
6843;DHT22;3460;52.028;8.916;2023-04-03T02:40:14;0.50;99.90
6843;DHT22;3460;52.028;8.916;2023-04-03T02:42:41;0.40;99.90
6843;DHT22;3460;52.028;8.916;2023-04-03T02:45:09;0.40;99.90
6843;DHT22;3460;52.028;8.916;2023-04-03T02:47:36;0.40;99.90
6843;DHT22;3460;52.028;8.916;2023-04-03T02:50:03;0.40;99.90
6843;DHT22;3460;52.028;8.916;2023-04-03T02:52:30;0.40;99.90
6843;DHT22;3460;52.028;8.916;2023-04-03T02:55:01;0.40;99.90
6843;DHT22;3460;52.028;8.916;2023-04-03T02:57:28;0.40;99.90
6843;DHT22;3460;52.028;8.916;2023-04-03T02:59:55;0.40;99.90
6843;DHT22;3460;52.028;8.916;2023-04-03T03:02:21;0.40;99.90
6843;DHT22;3460;52.028;8.916;2023-04-03T03:04:48;0.40;99.90
6843;DHT22;3460;52.028;8.916;2023-04-03T03:07:20;0.30;99.90
6843;DHT22;3460;52.028;8.916;2023-04-03T03:09:47;0.30;99.90
6843;DHT22;3460;52.028;8.916;2023-04-03T03:12:18;0.30;99.90
6843;DHT22;3460;52.028;8.916;2023-04-03T03:14:49;0.30;99.90
6843;DHT22;3460;52.028;8.916;2023-04-03T03:17:19;0.20;99.90
6843;DHT22;3460;52.028;8.916;2023-04-03T03:20:12;0.20;99.90
6843;DHT22;3460;52.028;8.916;2023-04-03T03:22:59;0.20;99.90
6843;DHT22;3460;52.028;8.916;2023-04-03T03:25:28;0.20;99.90
6843;DHT22;3460;52.028;8.916;2023-04-03T03:27:56;0.20;99.90
6843;DHT22;3460;52.028;8.916;2023-04-03T03:30:23;0.20;99.90
6843;DHT22;3460;52.028;8.916;2023-04-03T03:33:12;0.20;99.90
6843;DHT22;3460;52.028;8.916;2023-04-03T03:35:39;0.10;99.90
6843;DHT22;3460;52.028;8.916;2023-04-03T03:38:09;0.10;99.90
6843;DHT22;3460;52.028;8.916;2023-04-03T03:40:39;0.10;99.90
6843;DHT22;3460;52.028;8.916;2023-04-03T03:43:22;0.10;99.90
6843;DHT22;3460;52.028;8.916;2023-04-03T03:45:53;0.10;99.90
6843;DHT22;3460;52.028;8.916;2023-04-03T03:48:26;0.10;99.90
6843;DHT22;3460;52.028;8.916;2023-04-03T03:50:53;0.10;99.90
6843;DHT22;3460;52.028;8.916;2023-04-03T03:53:30;0.10;99.90
6843;DHT22;3460;52.028;8.916;2023-04-03T03:55:56;0.20;99.90
6843;DHT22;3460;52.028;8.916;2023-04-03T03:58:25;0.10;99.90
6843;DHT22;3460;52.028;8.916;2023-04-03T04:00:52;0.10;99.90
6843;DHT22;3460;52.028;8.916;2023-04-03T04:03:19;0.20;99.90
6843;DHT22;3460;52.028;8.916;2023-04-03T04:05:46;0.20;99.90
6843;DHT22;3460;52.028;8.916;2023-04-03T04:08:16;0.20;99.90
6843;DHT22;3460;52.028;8.916;2023-04-03T04:10:45;0.20;99.90
6843;DHT22;3460;52.028;8.916;2023-04-03T04:13:12;0.20;99.90
6843;DHT22;3460;52.028;8.916;2023-04-03T04:15:41;0.10;99.90
6843;DHT22;3460;52.028;8.916;2023-04-03T04:18:08;0.10;99.90
6843;DHT22;3460;52.028;8.916;2023-04-03T04:20:35;0.10;99.90
6843;DHT22;3460;52.028;8.916;2023-04-03T04:23:02;0.10;99.90
6843;DHT22;3460;52.028;8.916;2023-04-03T04:25:29;0.10;99.90
6843;DHT22;3460;52.028;8.916;2023-04-03T04:27:56;0.10;99.90
6843;DHT22;3460;52.028;8.916;2023-04-03T04:30:22;0.10;99.90
6843;DHT22;3460;52.028;8.916;2023-04-03T04:32:50;0.10;99.90
6843;DHT22;3460;52.028;8.916;2023-04-03T04:35:17;0.10;99.90
6843;DHT22;3460;52.028;8.916;2023-04-03T04:37:44;0.00;99.90
6843;DHT22;3460;52.028;8.916;2023-04-03T04:40:11;0.00;99.90
6843;DHT22;3460;52.028;8.916;2023-04-03T04:42:38;0.00;99.90
6843;DHT22;3460;52.028;8.916;2023-04-03T04:45:05;0.00;99.90
6843;DHT22;3460;52.028;8.916;2023-04-03T04:47:32;0.00;99.90
6843;DHT22;3460;52.028;8.916;2023-04-03T04:50:01;0.00;99.90
6843;DHT22;3460;52.028;8.916;2023-04-03T04:52:27;-0.10;99.90
6843;DHT22;3460;52.028;8.916;2023-04-03T04:54:54;-0.10;99.90
6843;DHT22;3460;52.028;8.916;2023-04-03T04:57:21;-0.10;99.90
6843;DHT22;3460;52.028;8.916;2023-04-03T04:59:48;-0.10;99.90
6843;DHT22;3460;52.028;8.916;2023-04-03T05:02:15;-0.20;99.90
6843;DHT22;3460;52.028;8.916;2023-04-03T05:04:42;-0.10;99.90
6843;DHT22;3460;52.028;8.916;2023-04-03T05:07:10;-0.10;99.90
6843;DHT22;3460;52.028;8.916;2023-04-03T05:09:37;-0.10;99.90
6843;DHT22;3460;52.028;8.916;2023-04-03T05:12:04;-0.10;99.90
6843;DHT22;3460;52.028;8.916;2023-04-03T05:14:31;-0.10;99.90
6843;DHT22;3460;52.028;8.916;2023-04-03T05:16:58;-0.10;99.90
6843;DHT22;3460;52.028;8.916;2023-04-03T05:19:25;-0.10;99.90
6843;DHT22;3460;52.028;8.916;2023-04-03T05:21:51;-0.10;99.90
6843;DHT22;3460;52.028;8.916;2023-04-03T05:24:20;-0.10;99.90
6843;DHT22;3460;52.028;8.916;2023-04-03T05:26:47;-0.10;99.90
6843;DHT22;3460;52.028;8.916;2023-04-03T05:29:13;-0.10;99.90
6843;DHT22;3460;52.028;8.916;2023-04-03T05:31:40;-0.10;99.90
6843;DHT22;3460;52.028;8.916;2023-04-03T05:34:07;-0.10;99.90
6843;DHT22;3460;52.028;8.916;2023-04-03T05:36:34;0.00;99.90
6843;DHT22;3460;52.028;8.916;2023-04-03T05:39:01;0.10;99.90
6843;DHT22;3460;52.028;8.916;2023-04-03T05:41:30;0.20;99.90
6843;DHT22;3460;52.028;8.916;2023-04-03T05:43:58;0.30;99.90
6843;DHT22;3460;52.028;8.916;2023-04-03T05:46:25;0.30;99.90
6843;DHT22;3460;52.028;8.916;2023-04-03T05:48:52;0.20;99.90
6843;DHT22;3460;52.028;8.916;2023-04-03T05:51:21;0.20;99.90
6843;DHT22;3460;52.028;8.916;2023-04-03T05:53:50;0.20;99.90
6843;DHT22;3460;52.028;8.916;2023-04-03T05:56:18;0.20;99.90
6843;DHT22;3460;52.028;8.916;2023-04-03T05:58:47;0.40;99.90
6843;DHT22;3460;52.028;8.916;2023-04-03T06:01:13;0.30;99.90
6843;DHT22;3460;52.028;8.916;2023-04-03T06:03:41;0.40;99.90
6843;DHT22;3460;52.028;8.916;2023-04-03T06:06:10;0.40;99.90
6843;DHT22;3460;52.028;8.916;2023-04-03T06:08:38;0.40;99.90
6843;DHT22;3460;52.028;8.916;2023-04-03T06:11:05;0.40;99.90
6843;DHT22;3460;52.028;8.916;2023-04-03T06:13:34;0.50;99.90
6843;DHT22;3460;52.028;8.916;2023-04-03T06:16:02;0.50;99.90
6843;DHT22;3460;52.028;8.916;2023-04-03T06:18:29;0.50;99.90
6843;DHT22;3460;52.028;8.916;2023-04-03T06:20:57;0.60;99.90
6843;DHT22;3460;52.028;8.916;2023-04-03T06:23:24;0.60;99.90
6843;DHT22;3460;52.028;8.916;2023-04-03T06:25:51;0.70;99.90
6843;DHT22;3460;52.028;8.916;2023-04-03T06:28:17;0.70;99.90
6843;DHT22;3460;52.028;8.916;2023-04-03T06:30:44;0.80;99.90
6843;DHT22;3460;52.028;8.916;2023-04-03T06:33:12;0.90;99.90
6843;DHT22;3460;52.028;8.916;2023-04-03T06:35:40;1.00;99.90
6843;DHT22;3460;52.028;8.916;2023-04-03T06:38:06;1.10;99.90
6843;DHT22;3460;52.028;8.916;2023-04-03T06:40:35;1.10;99.90
6843;DHT22;3460;52.028;8.916;2023-04-03T06:43:02;1.10;99.90
6843;DHT22;3460;52.028;8.916;2023-04-03T06:45:29;1.20;99.90
6843;DHT22;3460;52.028;8.916;2023-04-03T06:47:56;1.30;99.90
6843;DHT22;3460;52.028;8.916;2023-04-03T06:50:24;1.30;99.90
6843;DHT22;3460;52.028;8.916;2023-04-03T06:52:51;1.40;99.90
6843;DHT22;3460;52.028;8.916;2023-04-03T06:55:18;1.50;99.90
6843;DHT22;3460;52.028;8.916;2023-04-03T06:57:45;1.60;99.90
6843;DHT22;3460;52.028;8.916;2023-04-03T07:00:13;1.70;99.90
6843;DHT22;3460;52.028;8.916;2023-04-03T07:02:40;1.80;99.90
6843;DHT22;3460;52.028;8.916;2023-04-03T07:05:07;1.90;99.90
6843;DHT22;3460;52.028;8.916;2023-04-03T07:07:35;1.90;99.90
6843;DHT22;3460;52.028;8.916;2023-04-03T07:10:04;2.00;99.90
6843;DHT22;3460;52.028;8.916;2023-04-03T07:12:31;2.10;99.90
6843;DHT22;3460;52.028;8.916;2023-04-03T07:14:58;2.20;99.90
6843;DHT22;3460;52.028;8.916;2023-04-03T07:17:25;2.40;99.90
6843;DHT22;3460;52.028;8.916;2023-04-03T07:19:52;2.40;99.90
6843;DHT22;3460;52.028;8.916;2023-04-03T07:22:19;2.50;99.90
6843;DHT22;3460;52.028;8.916;2023-04-03T07:24:47;2.50;99.90
6843;DHT22;3460;52.028;8.916;2023-04-03T07:27:14;2.40;99.90
6843;DHT22;3460;52.028;8.916;2023-04-03T07:29:41;2.50;99.90
6843;DHT22;3460;52.028;8.916;2023-04-03T07:32:08;2.40;99.90
6843;DHT22;3460;52.028;8.916;2023-04-03T07:34:35;2.60;99.90
6843;DHT22;3460;52.028;8.916;2023-04-03T07:37:02;2.90;99.90
6843;DHT22;3460;52.028;8.916;2023-04-03T07:39:30;3.10;99.90
6843;DHT22;3460;52.028;8.916;2023-04-03T07:41:58;3.40;99.90
6843;DHT22;3460;52.028;8.916;2023-04-03T07:44:25;3.30;99.90
6843;DHT22;3460;52.028;8.916;2023-04-03T07:46:52;2.90;99.90
6843;DHT22;3460;52.028;8.916;2023-04-03T07:49:21;3.00;99.90
6843;DHT22;3460;52.028;8.916;2023-04-03T07:51:48;3.00;99.90
6843;DHT22;3460;52.028;8.916;2023-04-03T07:54:18;3.00;99.90
6843;DHT22;3460;52.028;8.916;2023-04-03T07:56:44;3.10;99.90
6843;DHT22;3460;52.028;8.916;2023-04-03T07:59:13;3.20;99.90
6843;DHT22;3460;52.028;8.916;2023-04-03T08:01:40;3.30;99.90
6843;DHT22;3460;52.028;8.916;2023-04-03T08:04:06;3.10;99.90
6843;DHT22;3460;52.028;8.916;2023-04-03T08:06:33;3.40;99.90
6843;DHT22;3460;52.028;8.916;2023-04-03T08:09:02;3.50;99.90
6843;DHT22;3460;52.028;8.916;2023-04-03T08:11:30;3.50;99.90
6843;DHT22;3460;52.028;8.916;2023-04-03T08:13:57;3.30;99.90
6843;DHT22;3460;52.028;8.916;2023-04-03T08:16:26;3.60;99.90
6843;DHT22;3460;52.028;8.916;2023-04-03T08:18:53;3.60;99.90
6843;DHT22;3460;52.028;8.916;2023-04-03T08:21:21;3.50;99.90
6843;DHT22;3460;52.028;8.916;2023-04-03T08:23:49;3.70;99.90
6843;DHT22;3460;52.028;8.916;2023-04-03T08:26:18;3.40;99.90
6843;DHT22;3460;52.028;8.916;2023-04-03T08:28:45;3.50;99.90
6843;DHT22;3460;52.028;8.916;2023-04-03T08:31:13;3.60;99.90
6843;DHT22;3460;52.028;8.916;2023-04-03T08:33:42;3.70;99.90
6843;DHT22;3460;52.028;8.916;2023-04-03T08:36:17;3.90;99.90
6843;DHT22;3460;52.028;8.916;2023-04-03T08:38:44;4.30;99.90
6843;DHT22;3460;52.028;8.916;2023-04-03T08:41:15;4.30;99.90
6843;DHT22;3460;52.028;8.916;2023-04-03T08:43:54;4.50;99.90
6843;DHT22;3460;52.028;8.916;2023-04-03T08:46:26;4.30;99.90
6843;DHT22;3460;52.028;8.916;2023-04-03T08:48:59;3.90;99.90
6843;DHT22;3460;52.028;8.916;2023-04-03T08:51:28;4.00;99.90
6843;DHT22;3460;52.028;8.916;2023-04-03T08:53:58;4.40;99.90
6843;DHT22;3460;52.028;8.916;2023-04-03T08:56:27;5.00;99.90
6843;DHT22;3460;52.028;8.916;2023-04-03T08:58:57;5.40;99.90
6843;DHT22;3460;52.028;8.916;2023-04-03T09:01:27;5.40;99.90
6843;DHT22;3460;52.028;8.916;2023-04-03T09:03:56;5.10;99.90
6843;DHT22;3460;52.028;8.916;2023-04-03T09:06:27;4.90;99.90
6843;DHT22;3460;52.028;8.916;2023-04-03T09:09:06;4.40;99.90
6843;DHT22;3460;52.028;8.916;2023-04-03T09:11:44;4.40;99.90
6843;DHT22;3460;52.028;8.916;2023-04-03T09:14:16;4.50;99.90
6843;DHT22;3460;52.028;8.916;2023-04-03T09:16:50;4.70;99.90
6843;DHT22;3460;52.028;8.916;2023-04-03T09:19:34;4.60;99.90
6843;DHT22;3460;52.028;8.916;2023-04-03T09:22:20;4.60;99.90
6843;DHT22;3460;52.028;8.916;2023-04-03T09:24:52;4.50;99.90
6843;DHT22;3460;52.028;8.916;2023-04-03T09:27:22;4.70;99.90
6843;DHT22;3460;52.028;8.916;2023-04-03T09:29:52;4.90;99.90
6843;DHT22;3460;52.028;8.916;2023-04-03T09:32:25;4.80;99.90
6843;DHT22;3460;52.028;8.916;2023-04-03T09:34:53;4.70;99.90
6843;DHT22;3460;52.028;8.916;2023-04-03T09:37:40;5.00;99.90
6843;DHT22;3460;52.028;8.916;2023-04-03T09:40:33;5.30;99.90
6843;DHT22;3460;52.028;8.916;2023-04-03T09:43:02;5.60;99.90
6843;DHT22;3460;52.028;8.916;2023-04-03T09:45:31;5.70;99.90
6843;DHT22;3460;52.028;8.916;2023-04-03T09:48:06;5.90;99.90
6843;DHT22;3460;52.028;8.916;2023-04-03T09:50:33;5.90;99.90
6843;DHT22;3460;52.028;8.916;2023-04-03T09:53:06;5.70;99.90
6843;DHT22;3460;52.028;8.916;2023-04-03T09:55:42;5.60;99.90
6843;DHT22;3460;52.028;8.916;2023-04-03T09:58:24;5.40;99.90
6843;DHT22;3460;52.028;8.916;2023-04-03T10:00:55;5.50;99.90
6843;DHT22;3460;52.028;8.916;2023-04-03T10:03:25;5.80;99.90
6843;DHT22;3460;52.028;8.916;2023-04-03T10:05:52;5.60;99.90
6843;DHT22;3460;52.028;8.916;2023-04-03T10:08:24;5.70;99.90
6843;DHT22;3460;52.028;8.916;2023-04-03T10:11:13;5.90;99.90
6843;DHT22;3460;52.028;8.916;2023-04-03T10:13:55;6.10;99.90
6843;DHT22;3460;52.028;8.916;2023-04-03T10:16:27;6.10;99.90
6843;DHT22;3460;52.028;8.916;2023-04-03T10:19:14;5.50;99.90
6843;DHT22;3460;52.028;8.916;2023-04-03T10:21:47;5.10;99.90
6843;DHT22;3460;52.028;8.916;2023-04-03T10:24:20;4.90;99.90
6843;DHT22;3460;52.028;8.916;2023-04-03T10:26:55;4.80;99.90
6843;DHT22;3460;52.028;8.916;2023-04-03T10:29:35;4.70;99.90
6843;DHT22;3460;52.028;8.916;2023-04-03T10:32:13;4.70;99.90
6843;DHT22;3460;52.028;8.916;2023-04-03T10:34:44;4.60;99.90
6843;DHT22;3460;52.028;8.916;2023-04-03T10:37:16;4.70;99.90
6843;DHT22;3460;52.028;8.916;2023-04-03T10:39:54;5.00;99.90
6843;DHT22;3460;52.028;8.916;2023-04-03T10:42:30;5.10;99.90
6843;DHT22;3460;52.028;8.916;2023-04-03T10:45:15;5.60;99.90
6843;DHT22;3460;52.028;8.916;2023-04-03T10:47:48;5.70;99.90
6843;DHT22;3460;52.028;8.916;2023-04-03T10:50:27;6.10;99.90
6843;DHT22;3460;52.028;8.916;2023-04-03T10:53:00;6.10;99.90
6843;DHT22;3460;52.028;8.916;2023-04-03T10:55:35;5.80;99.90
6843;DHT22;3460;52.028;8.916;2023-04-03T10:58:05;5.90;99.90
6843;DHT22;3460;52.028;8.916;2023-04-03T11:00:37;5.60;99.90
6843;DHT22;3460;52.028;8.916;2023-04-03T11:03:11;5.40;99.90
6843;DHT22;3460;52.028;8.916;2023-04-03T11:05:42;5.40;99.90
6843;DHT22;3460;52.028;8.916;2023-04-03T11:08:14;5.40;99.90
6843;DHT22;3460;52.028;8.916;2023-04-03T11:10:46;5.30;99.90
6843;DHT22;3460;52.028;8.916;2023-04-03T11:13:18;5.10;99.90
6843;DHT22;3460;52.028;8.916;2023-04-03T11:15:46;5.20;99.90
6843;DHT22;3460;52.028;8.916;2023-04-03T11:18:15;5.40;99.90
6843;DHT22;3460;52.028;8.916;2023-04-03T11:20:50;5.30;99.90
6843;DHT22;3460;52.028;8.916;2023-04-03T11:23:23;5.30;99.90
6843;DHT22;3460;52.028;8.916;2023-04-03T11:25:54;5.40;99.90
6843;DHT22;3460;52.028;8.916;2023-04-03T11:28:23;5.50;99.90
6843;DHT22;3460;52.028;8.916;2023-04-03T11:30:56;5.50;99.90
6843;DHT22;3460;52.028;8.916;2023-04-03T11:33:36;5.50;99.90
6843;DHT22;3460;52.028;8.916;2023-04-03T11:36:06;5.60;99.90
6843;DHT22;3460;52.028;8.916;2023-04-03T11:38:36;5.60;99.90
6843;DHT22;3460;52.028;8.916;2023-04-03T11:41:08;5.60;99.90
6843;DHT22;3460;52.028;8.916;2023-04-03T11:43:40;5.50;99.90
6843;DHT22;3460;52.028;8.916;2023-04-03T11:46:08;5.40;99.90
6843;DHT22;3460;52.028;8.916;2023-04-03T11:48:45;5.50;99.90
6843;DHT22;3460;52.028;8.916;2023-04-03T11:51:40;5.60;99.90
6843;DHT22;3460;52.028;8.916;2023-04-03T11:54:46;5.80;99.90
6843;DHT22;3460;52.028;8.916;2023-04-03T11:57:46;6.10;99.90
6843;DHT22;3460;52.028;8.916;2023-04-03T12:00:49;6.40;99.90
6843;DHT22;3460;52.028;8.916;2023-04-03T12:07:00;6.60;99.90
6843;DHT22;3460;52.028;8.916;2023-04-03T12:09:33;6.60;99.90
6843;DHT22;3460;52.028;8.916;2023-04-03T12:12:22;6.50;99.90
6843;DHT22;3460;52.028;8.916;2023-04-03T12:14:52;6.30;99.90
6843;DHT22;3460;52.028;8.916;2023-04-03T12:17:22;6.10;99.90
6843;DHT22;3460;52.028;8.916;2023-04-03T12:19:50;5.90;99.90
6843;DHT22;3460;52.028;8.916;2023-04-03T12:22:18;6.00;99.90
6843;DHT22;3460;52.028;8.916;2023-04-03T12:24:47;6.20;99.90
6843;DHT22;3460;52.028;8.916;2023-04-03T12:27:27;6.30;99.90
6843;DHT22;3460;52.028;8.916;2023-04-03T12:30:05;6.20;99.90
6843;DHT22;3460;52.028;8.916;2023-04-03T12:32:46;6.30;99.90
6843;DHT22;3460;52.028;8.916;2023-04-03T12:35:26;6.30;99.90
6843;DHT22;3460;52.028;8.916;2023-04-03T12:38:17;6.10;99.90
6843;DHT22;3460;52.028;8.916;2023-04-03T12:40:49;6.10;99.90
6843;DHT22;3460;52.028;8.916;2023-04-03T12:43:29;6.30;99.90
6843;DHT22;3460;52.028;8.916;2023-04-03T12:46:07;6.40;99.90
6843;DHT22;3460;52.028;8.916;2023-04-03T12:48:39;6.60;99.90
6843;DHT22;3460;52.028;8.916;2023-04-03T12:51:14;6.40;99.90
6843;DHT22;3460;52.028;8.916;2023-04-03T12:53:42;6.60;99.90
6843;DHT22;3460;52.028;8.916;2023-04-03T12:56:22;6.60;99.90
6843;DHT22;3460;52.028;8.916;2023-04-03T12:58:49;6.30;99.90
6843;DHT22;3460;52.028;8.916;2023-04-03T13:01:20;6.30;99.90
6843;DHT22;3460;52.028;8.916;2023-04-03T13:03:49;6.60;99.90
6843;DHT22;3460;52.028;8.916;2023-04-03T13:06:19;6.70;99.90
6843;DHT22;3460;52.028;8.916;2023-04-03T13:08:51;6.70;99.90
6843;DHT22;3460;52.028;8.916;2023-04-03T13:11:20;6.70;99.90
6843;DHT22;3460;52.028;8.916;2023-04-03T13:13:56;6.80;99.90
6843;DHT22;3460;52.028;8.916;2023-04-03T13:16:24;6.60;99.90
6843;DHT22;3460;52.028;8.916;2023-04-03T13:18:52;6.80;99.90
6843;DHT22;3460;52.028;8.916;2023-04-03T13:21:22;7.00;99.90
6843;DHT22;3460;52.028;8.916;2023-04-03T13:23:52;7.10;99.90
6843;DHT22;3460;52.028;8.916;2023-04-03T13:26:21;7.20;99.90
6843;DHT22;3460;52.028;8.916;2023-04-03T13:28:49;7.30;99.90
6843;DHT22;3460;52.028;8.916;2023-04-03T13:31:21;7.40;99.90
6843;DHT22;3460;52.028;8.916;2023-04-03T13:33:57;7.50;99.90
6843;DHT22;3460;52.028;8.916;2023-04-03T13:36:27;7.00;99.90
6843;DHT22;3460;52.028;8.916;2023-04-03T13:39:02;6.80;99.90
6843;DHT22;3460;52.028;8.916;2023-04-03T13:41:31;6.80;99.90
6843;DHT22;3460;52.028;8.916;2023-04-03T13:44:25;6.90;99.90
6843;DHT22;3460;52.028;8.916;2023-04-03T13:46:54;6.80;99.90
6843;DHT22;3460;52.028;8.916;2023-04-03T13:49:30;6.90;99.90
6843;DHT22;3460;52.028;8.916;2023-04-03T13:51:58;6.80;99.90
6843;DHT22;3460;52.028;8.916;2023-04-03T13:54:30;7.00;99.90
6843;DHT22;3460;52.028;8.916;2023-04-03T13:56:59;6.90;99.90
6843;DHT22;3460;52.028;8.916;2023-04-03T13:59:29;7.20;99.90
6843;DHT22;3460;52.028;8.916;2023-04-03T14:02:12;7.10;99.90
6843;DHT22;3460;52.028;8.916;2023-04-03T14:04:54;7.20;99.90
6843;DHT22;3460;52.028;8.916;2023-04-03T14:07:26;6.90;99.90
6843;DHT22;3460;52.028;8.916;2023-04-03T14:09:53;6.70;99.90
6843;DHT22;3460;52.028;8.916;2023-04-03T14:12:25;6.70;99.90
6843;DHT22;3460;52.028;8.916;2023-04-03T14:14:53;6.80;99.90
6843;DHT22;3460;52.028;8.916;2023-04-03T14:17:23;6.70;99.90
6843;DHT22;3460;52.028;8.916;2023-04-03T14:19:53;6.70;99.90
6843;DHT22;3460;52.028;8.916;2023-04-03T14:22:22;6.80;99.90
6843;DHT22;3460;52.028;8.916;2023-04-03T14:24:51;7.10;99.90
6843;DHT22;3460;52.028;8.916;2023-04-03T14:27:20;7.20;99.90
6843;DHT22;3460;52.028;8.916;2023-04-03T14:29:48;7.20;99.90
6843;DHT22;3460;52.028;8.916;2023-04-03T14:32:17;7.10;99.90
6843;DHT22;3460;52.028;8.916;2023-04-03T14:34:44;6.80;99.90
6843;DHT22;3460;52.028;8.916;2023-04-03T14:37:14;6.80;99.90
6843;DHT22;3460;52.028;8.916;2023-04-03T14:39:42;6.90;99.90
6843;DHT22;3460;52.028;8.916;2023-04-03T14:42:12;7.20;99.90
6843;DHT22;3460;52.028;8.916;2023-04-03T14:44:40;7.00;99.90
6843;DHT22;3460;52.028;8.916;2023-04-03T14:47:10;7.10;99.90
6843;DHT22;3460;52.028;8.916;2023-04-03T14:49:37;7.10;99.90
6843;DHT22;3460;52.028;8.916;2023-04-03T14:52:04;7.00;99.90
6843;DHT22;3460;52.028;8.916;2023-04-03T14:54:32;7.00;99.90
6843;DHT22;3460;52.028;8.916;2023-04-03T14:57:00;7.20;99.90
6843;DHT22;3460;52.028;8.916;2023-04-03T14:59:28;7.20;99.90
6843;DHT22;3460;52.028;8.916;2023-04-03T15:01:55;7.30;99.90
6843;DHT22;3460;52.028;8.916;2023-04-03T15:04:22;7.30;99.90
6843;DHT22;3460;52.028;8.916;2023-04-03T15:06:49;7.30;99.90
6843;DHT22;3460;52.028;8.916;2023-04-03T15:09:20;7.40;99.90
6843;DHT22;3460;52.028;8.916;2023-04-03T15:11:50;7.30;99.90
6843;DHT22;3460;52.028;8.916;2023-04-03T15:14:17;7.30;99.90
6843;DHT22;3460;52.028;8.916;2023-04-03T15:16:44;7.20;99.90
6843;DHT22;3460;52.028;8.916;2023-04-03T15:19:12;7.30;99.90
6843;DHT22;3460;52.028;8.916;2023-04-03T15:21:39;7.20;99.90
6843;DHT22;3460;52.028;8.916;2023-04-03T15:24:06;7.00;99.90
6843;DHT22;3460;52.028;8.916;2023-04-03T15:26:33;7.00;99.90
6843;DHT22;3460;52.028;8.916;2023-04-03T15:29:01;7.00;99.90
6843;DHT22;3460;52.028;8.916;2023-04-03T15:31:29;7.00;99.90
6843;DHT22;3460;52.028;8.916;2023-04-03T15:33:56;6.90;99.90
6843;DHT22;3460;52.028;8.916;2023-04-03T15:36:23;6.90;99.90
6843;DHT22;3460;52.028;8.916;2023-04-03T15:38:50;6.90;99.90
6843;DHT22;3460;52.028;8.916;2023-04-03T15:41:17;7.10;99.90
6843;DHT22;3460;52.028;8.916;2023-04-03T15:43:44;7.30;99.90
6843;DHT22;3460;52.028;8.916;2023-04-03T15:46:13;7.30;99.90
6843;DHT22;3460;52.028;8.916;2023-04-03T15:48:40;7.30;99.90
6843;DHT22;3460;52.028;8.916;2023-04-03T15:51:07;7.50;99.90
6843;DHT22;3460;52.028;8.916;2023-04-03T15:53:33;7.40;99.90
6843;DHT22;3460;52.028;8.916;2023-04-03T15:56:00;7.20;99.90
6843;DHT22;3460;52.028;8.916;2023-04-03T15:58:27;7.00;99.90
6843;DHT22;3460;52.028;8.916;2023-04-03T16:00:54;6.80;99.90
6843;DHT22;3460;52.028;8.916;2023-04-03T16:03:22;6.70;99.90
6843;DHT22;3460;52.028;8.916;2023-04-03T16:05:50;6.50;99.90
6843;DHT22;3460;52.028;8.916;2023-04-03T16:08:17;6.50;99.90
6843;DHT22;3460;52.028;8.916;2023-04-03T16:10:44;6.40;99.90
6843;DHT22;3460;52.028;8.916;2023-04-03T16:13:12;6.50;99.90
6843;DHT22;3460;52.028;8.916;2023-04-03T16:15:39;6.60;99.90
6843;DHT22;3460;52.028;8.916;2023-04-03T16:18:07;6.70;99.90
6843;DHT22;3460;52.028;8.916;2023-04-03T16:20:36;6.70;99.90
6843;DHT22;3460;52.028;8.916;2023-04-03T16:23:03;7.00;99.90
6843;DHT22;3460;52.028;8.916;2023-04-03T16:25:30;7.00;99.90
6843;DHT22;3460;52.028;8.916;2023-04-03T16:27:57;7.00;99.90
6843;DHT22;3460;52.028;8.916;2023-04-03T16:30:24;6.90;99.90
6843;DHT22;3460;52.028;8.916;2023-04-03T16:32:51;6.90;99.90
6843;DHT22;3460;52.028;8.916;2023-04-03T16:35:19;6.80;99.90
6843;DHT22;3460;52.028;8.916;2023-04-03T16:37:47;6.80;99.90
6843;DHT22;3460;52.028;8.916;2023-04-03T16:40:14;6.70;99.90
6843;DHT22;3460;52.028;8.916;2023-04-03T16:42:41;6.50;99.90
6843;DHT22;3460;52.028;8.916;2023-04-03T16:45:08;6.40;99.90
6843;DHT22;3460;52.028;8.916;2023-04-03T16:47:35;6.30;99.90